Time;durP1;ratioP1;P1;durP2;ratioP2;P2;SDS_P1;SDS_P2;PMS_P1;PMS_P2;Temp;Humidity;BMP_temperature;BMP_pressure;BME280_temperature;BME280_humidity;BME280_pressure;Samples;Min_cycle;Max_cycle;Signal;HPM_P1;HPM_P2
2022/08/13 00:01:33;;;;;;;6.40;4.38;;;;;;;19.72;57.52;99028.56;6225823;22;20003;-92
2022/08/13 00:04:00;;;;;;;6.63;4.32;;;;;;;19.81;57.89;99028.47;6202569;22;20071;-92
2022/08/13 00:09:04;;;;;;;7.07;4.20;;;;;;;19.75;57.53;99018.88;6229080;22;20097;-92
2022/08/13 00:14:14;;;;;;;6.35;4.30;;;;;;;19.62;59.00;99028.97;6233490;22;20064;-92
2022/08/13 00:16:40;;;;;;;8.13;4.53;;;;;;;19.62;58.69;99039.09;6224848;22;20038;-92
2022/08/13 00:19:05;;;;;;;5.93;4.40;;;;;;;19.67;58.70;99049.78;6224990;22;19996;-92
2022/08/13 00:21:31;;;;;;;5.07;3.90;;;;;;;19.52;58.82;99032.13;6225177;22;20000;-92
2022/08/13 00:23:57;;;;;;;5.97;4.30;;;;;;;19.44;58.86;99030.25;6225634;22;20002;-92
2022/08/13 00:26:25;;;;;;;5.25;4.50;;;;;;;19.49;58.88;99035.53;6199541;22;20338;-92
2022/08/13 00:28:52;;;;;;;7.45;4.63;;;;;;;19.41;59.32;99022.75;6225834;22;20003;-92
2022/08/13 00:31:18;;;;;;;6.15;4.13;;;;;;;19.48;59.03;99042.09;6200125;22;20331;-94
2022/08/13 00:33:43;;;;;;;5.80;4.57;;;;;;;19.39;59.57;99032.06;6200264;22;20049;-92
2022/08/13 00:36:09;;;;;;;7.05;4.57;;;;;;;19.35;59.99;99033.09;6200335;22;20000;-92
2022/08/13 00:38:35;;;;;;;5.88;4.10;;;;;;;19.29;59.79;99024.28;6225032;22;20007;-92
2022/08/13 00:41:00;;;;;;;5.22;4.22;;;;;;;19.28;59.69;99030.91;6199854;22;20011;-91
2022/08/13 00:43:26;;;;;;;6.93;3.90;;;;;;;19.31;59.25;99021.22;6199410;22;20454;-93
2022/08/13 00:45:54;;;;;;;5.35;4.15;;;;;;;19.26;59.61;99029.63;6199717;22;20019;-92
2022/08/13 00:51:06;;;;;;;5.85;4.03;;;;;;;19.10;59.55;99010.34;6194495;23;20007;-92
2022/08/13 00:53:32;;;;;;;7.18;4.57;;;;;;;19.12;60.05;99035.38;6170235;23;20324;-92
2022/08/13 00:55:59;;;;;;;5.47;4.13;;;;;;;19.10;60.06;99022.06;6195490;23;19996;-93
2022/08/13 00:58:26;;;;;;;5.75;4.15;;;;;;;19.13;59.63;99029.59;6169327;23;20058;-92
2022/08/13 01:00:56;;;;;;;7.30;4.38;;;;;;;19.09;59.66;99020.47;6169946;23;20061;-92
2022/08/13 01:03:21;;;;;;;5.43;4.07;;;;;;;19.12;59.71;99025.25;6195845;23;19996;-92
2022/08/13 01:05:47;;;;;;;4.90;4.18;;;;;;;19.11;59.75;99014.66;6219685;23;20058;-92
2022/08/13 01:08:16;;;;;;;6.35;4.22;;;;;;;19.04;58.96;99006.22;6170456;23;20004;-93
2022/08/13 01:10:42;;;;;;;5.70;4.40;;;;;;;19.09;59.66;99012.28;6170668;23;20347;-94
2022/08/13 01:13:09;;;;;;;4.95;3.85;;;;;;;19.06;59.55;99003.94;6169461;23;20023;-91
2022/08/13 01:15:36;;;;;;;4.93;4.03;;;;;;;19.09;59.73;99015.00;6195198;23;19996;-93
2022/08/13 01:18:03;;;;;;;5.00;3.58;;;;;;;19.05;59.96;99018.72;6168826;23;20081;-93
2022/08/13 01:20:29;;;;;;;5.50;4.22;;;;;;;18.82;60.71;98997.22;6195448;23;20431;-91
2022/08/13 01:22:55;;;;;;;4.85;3.97;;;;;;;18.75;60.66;99005.13;6169468;23;20011;-92
2022/08/13 01:25:21;;;;;;;8.43;4.75;;;;;;;18.65;61.97;99005.50;6194189;23;20039;-91
2022/08/13 01:27:50;;;;;;;8.20;4.43;;;;;;;18.63;62.13;99016.75;6193762;23;20028;-91
2022/08/13 01:30:17;;;;;;;5.57;4.03;;;;;;;18.53;61.80;99007.03;6169019;23;19992;-91
2022/08/13 01:32:43;;;;;;;5.88;4.43;;;;;;;18.44;61.86;98991.84;6169662;23;20437;-92
2022/08/13 01:35:08;;;;;;;5.30;4.32;;;;;;;18.61;61.42;99005.38;6169426;23;20007;-93
2022/08/13 01:37:34;;;;;;;4.93;4.05;;;;;;;18.60;61.49;99003.78;6169837;23;20000;-91
2022/08/13 01:40:01;;;;;;;5.32;4.18;;;;;;;18.62;60.43;98985.16;6194334;23;20004;-91
2022/08/13 01:42:26;;;;;;;5.13;3.90;;;;;;;18.86;60.38;99019.97;6194381;23;20059;-92
2022/08/13 01:44:51;;;;;;;6.05;4.13;;;;;;;18.73;60.92;99002.72;6169552;23;19996;-92
2022/08/13 01:50:30;;;;;;;10.32;4.10;;;;;;;18.63;60.79;98991.41;6110408;23;20154;-92
2022/08/13 01:53:04;;;;;;;4.38;3.60;;;;;;;18.53;60.18;98981.69;6130671;23;20012;-92
2022/08/13 01:55:43;;;;;;;5.85;3.70;;;;;;;18.81;60.12;99016.66;6186600;22;20038;-93
2022/08/13 01:58:19;;;;;;;6.22;4.70;;;;;;;18.70;60.06;98999.88;6224458;22;19999;-91
2022/08/13 02:00:46;;;;;;;4.97;3.90;;;;;;;18.66;60.50;99004.38;6226353;22;20014;-92
2022/08/13 02:03:13;;;;;;;6.95;4.25;;;;;;;18.72;60.78;99012.03;6199996;22;20007;-92
2022/08/13 02:05:41;;;;;;;9.07;4.65;;;;;;;18.56;61.27;98995.44;6198718;22;20000;-92
2022/08/13 02:08:08;;;;;;;7.95;4.38;;;;;;;18.53;61.75;99006.22;6224417;22;20007;-92
2022/08/13 02:10:35;;;;;;;6.80;4.80;;;;;;;18.49;62.64;99005.28;6199175;22;19996;-92
2022/08/13 02:13:01;;;;;;;7.78;4.75;;;;;;;18.35;62.83;98986.44;6224695;22;20004;-91
2022/08/13 02:15:27;;;;;;;6.95;5.00;;;;;;;18.30;62.84;99001.06;6224815;22;20489;-92
2022/08/13 02:17:52;;;;;;;7.28;4.45;;;;;;;18.17;63.32;98997.44;6199384;22;19996;-92
2022/08/13 02:20:17;;;;;;;5.90;4.50;;;;;;;18.16;63.80;99008.69;6199140;22;20441;-92
2022/08/13 02:22:45;;;;;;;7.30;4.93;;;;;;;18.12;63.77;98999.56;6199906;22;20006;-92
2022/08/13 02:25:12;;;;;;;7.60;4.45;;;;;;;18.06;64.19;99000.88;6200404;22;20003;-92
2022/08/13 02:27:38;;;;;;;6.90;4.53;;;;;;;18.00;64.33;99002.97;6224428;22;20399;-92
2022/08/13 02:30:05;;;;;;;8.60;4.88;;;;;;;17.96;64.25;99008.25;6223732;22;20082;-92
2022/08/13 02:32:33;;;;;;;6.28;4.68;;;;;;;17.91;64.73;99000.28;6198774;22;20006;-92
2022/08/13 02:34:58;;;;;;;7.07;4.45;;;;;;;17.92;64.81;98999.16;6200151;22;20089;-93
2022/08/13 02:37:24;;;;;;;7.25;4.53;;;;;;;17.93;64.24;98997.25;6199490;22;20008;-92
2022/08/13 02:39:51;;;;;;;5.07;4.05;;;;;;;17.91;64.09;99003.00;6223715;22;20335;-92
2022/08/13 02:42:16;;;;;;;5.97;4.47;;;;;;;17.78;64.57;99003.97;6199210;22;20004;-92
2022/08/13 02:44:47;;;;;;;6.80;4.63;;;;;;;17.77;64.54;99000.47;6224120;22;20454;-91
2022/08/13 02:47:13;;;;;;;6.15;4.82;;;;;;;17.75;65.14;99008.16;6199989;22;19995;-92
2022/08/13 02:49:40;;;;;;;6.60;4.97;;;;;;;17.74;65.17;99005.75;6223902;22;20466;-91
2022/08/13 02:52:08;;;;;;;6.53;4.63;;;;;;;17.70;65.22;99007.50;6200818;22;20006;-92
2022/08/13 02:54:42;;;;;;;8.65;4.82;;;;;;;17.63;65.20;98994.41;6201039;22;19996;-92
2022/08/13 02:57:08;;;;;;;9.13;4.75;;;;;;;17.61;65.03;99004.03;6201803;22;20086;-92
2022/08/13 02:59:34;;;;;;;6.97;5.00;;;;;;;17.63;65.66;98990.91;6226108;22;20031;-91
2022/08/13 03:02:00;;;;;;;8.80;5.15;;;;;;;17.70;65.53;99011.06;6200222;22;20479;-93
2022/08/13 03:04:25;;;;;;;8.48;5.18;;;;;;;17.63;65.02;99002.56;6200861;22;20353;-91
2022/08/13 03:06:51;;;;;;;7.75;4.90;;;;;;;17.66;65.52;99006.56;6225822;22;20010;-91
2022/08/13 03:09:20;;;;;;;7.32;5.05;;;;;;;17.62;64.79;99003.72;6200330;22;20517;-91
2022/08/13 03:11:47;;;;;;;6.90;4.93;;;;;;;17.66;65.06;99012.00;6201364;22;20004;-91
2022/08/13 03:14:13;;;;;;;7.03;4.60;;;;;;;17.64;65.34;99006.91;6200012;22;19999;-91
2022/08/13 03:16:39;;;;;;;7.03;4.38;;;;;;;17.60;65.34;99011.41;6225080;22;20038;-92
2022/08/13 03:19:05;;;;;;;6.13;4.80;;;;;;;17.64;65.15;99015.09;6200480;22;20014;-90
2022/08/13 03:21:38;;;;;;;6.63;5.00;;;;;;;17.65;64.93;99015.88;6200125;22;20025;-93
2022/08/13 03:24:05;;;;;;;7.28;4.93;;;;;;;17.61;64.72;99013.00;6201915;22;20011;-92
2022/08/13 03:26:31;;;;;;;6.13;4.20;;;;;;;17.81;64.16;99010.72;6227209;22;19999;-92
2022/08/13 03:29:00;;;;;;;7.22;4.22;;;;;;;17.96;62.97;99008.25;6250315;22;20066;-92
2022/08/13 03:31:27;;;;;;;7.82;4.50;;;;;;;18.16;62.06;99022.31;6201230;22;20018;-92
2022/08/13 03:33:53;;;;;;;5.43;4.32;;;;;;;18.18;61.56;99014.59;6200941;22;20392;-92
2022/08/13 03:36:20;;;;;;;6.70;4.30;;;;;;;18.22;61.41;99018.28;6224871;22;20473;-92
2022/08/13 03:38:46;;;;;;;5.30;4.05;;;;;;;18.25;61.47;99012.16;6225381;22;20050;-93
2022/08/13 03:41:11;;;;;;;5.43;3.95;;;;;;;18.28;60.96;99016.97;6225450;22;20026;-92
2022/08/13 03:43:40;;;;;;;5.93;4.40;;;;;;;18.48;60.89;99025.50;6201123;22;19996;-92
2022/08/13 03:46:08;;;;;;;5.70;4.10;;;;;;;18.40;60.68;99012.72;6227095;22;20019;-92
2022/08/13 03:48:34;;;;;;;5.90;4.15;;;;;;;18.52;60.59;99029.97;6252169;22;20026;-92
2022/08/13 03:51:01;;;;;;;6.28;4.50;;;;;;;18.37;60.99;99014.19;6226023;22;20045;-91
2022/08/13 03:53:27;;;;;;;5.50;4.07;;;;;;;18.32;61.47;99015.19;6251734;22;20002;-92
2022/08/13 03:55:52;;;;;;;7.75;4.53;;;;;;;18.24;62.23;99017.91;6199688;22;20003;-91
2022/08/13 03:58:20;;;;;;;5.75;4.40;;;;;;;18.14;62.86;99021.84;6201235;22;20000;-91
2022/08/13 04:00:47;;;;;;;6.72;4.82;;;;;;;18.01;63.63;99017.38;6200906;22;20004;-91
2022/08/13 04:03:20;;;;;;;6.47;4.60;;;;;;;17.93;64.58;99041.63;6200761;22;19999;-91
2022/08/13 04:05:53;;;;;;;7.97;5.05;;;;;;;17.78;64.74;99032.03;6278044;22;19999;-91
2022/08/13 04:08:20;;;;;;;7.50;4.78;;;;;;;17.69;65.10;99025.78;6201405;22;20000;-92
2022/08/13 04:10:47;;;;;;;7.53;5.30;;;;;;;17.60;65.05;99016.84;6200024;22;20383;-92
2022/08/13 04:13:15;;;;;;;8.30;5.55;;;;;;;17.55;65.52;99012.34;6200180;22;20007;-91
2022/08/13 04:15:42;;;;;;;9.02;5.65;;;;;;;17.68;65.57;99020.66;6201013;22;20024;-91
2022/08/13 04:18:09;;;;;;;6.82;5.13;;;;;;;17.57;65.43;99012.03;6201104;22;20057;-92
2022/08/13 04:20:36;;;;;;;7.40;4.72;;;;;;;17.58;65.35;99013.66;6200352;22;20514;-92
2022/08/13 04:23:03;;;;;;;6.40;5.10;;;;;;;17.62;65.34;99008.34;6225492;22;19996;-92
2022/08/13 04:25:29;;;;;;;6.90;4.88;;;;;;;17.57;65.53;99010.09;6224520;22;20003;-92
2022/08/13 04:27:54;;;;;;;8.23;5.43;;;;;;;17.74;65.53;99024.81;6200196;22;19999;-93
2022/08/13 04:30:20;;;;;;;5.82;4.90;;;;;;;17.71;65.10;99009.13;6199726;22;19991;-93
2022/08/13 04:32:46;;;;;;;7.43;5.35;;;;;;;17.75;64.80;99013.59;6200864;22;19995;-92
2022/08/13 04:35:12;;;;;;;10.25;4.82;;;;;;;17.81;65.23;99011.50;6201227;22;20008;-92
2022/08/13 04:37:39;;;;;;;6.03;4.43;;;;;;;17.86;64.62;99014.06;6200372;22;20038;-93
2022/08/13 04:40:06;;;;;;;8.63;4.82;;;;;;;17.95;64.26;99003.97;6199784;22;20010;-92
2022/08/13 04:42:49;;;;;;;5.95;4.45;;;;;;;18.06;63.71;99001.66;6225103;22;20006;-92
2022/08/13 04:45:14;;;;;;;9.80;5.03;;;;;;;18.18;63.40;99014.59;6225137;22;20400;-92
2022/08/13 04:47:41;;;;;;;7.60;4.82;;;;;;;18.26;63.52;99021.13;6199184;22;20007;-92
2022/08/13 04:50:08;;;;;;;8.23;4.50;;;;;;;18.27;63.21;99007.16;6224594;22;20008;-91
2022/08/13 04:52:34;;;;;;;5.50;4.60;;;;;;;18.40;62.20;99012.72;6199714;22;20010;-91
2022/08/13 04:55:02;;;;;;;8.10;4.85;;;;;;;18.42;62.07;99005.81;6200538;22;20003;-93
2022/08/13 04:57:27;;;;;;;8.90;4.57;;;;;;;18.45;61.80;99007.88;6200048;22;20392;-91
2022/08/13 04:59:52;;;;;;;7.30;4.88;;;;;;;18.49;62.09;98997.91;6199898;22;20008;-93
2022/08/13 05:02:19;;;;;;;6.90;5.13;;;;;;;18.52;61.76;98999.97;6198570;22;19996;-92
2022/08/13 05:04:45;;;;;;;7.57;4.65;;;;;;;18.66;61.83;98999.72;6199121;22;20000;-92
2022/08/13 05:07:10;;;;;;;6.45;4.65;;;;;;;18.70;61.80;98995.22;6224292;22;19995;-93
2022/08/13 05:09:36;;;;;;;7.20;5.00;;;;;;;18.83;61.51;99001.56;6224027;22;20033;-93
2022/08/13 05:12:01;;;;;;;7.50;4.72;;;;;;;18.83;60.87;98993.38;6198708;22;20004;-92
2022/08/13 05:14:27;;;;;;;7.35;5.10;;;;;;;18.92;60.96;98996.03;6198891;22;20057;-93
2022/08/13 05:16:53;;;;;;;10.40;5.13;;;;;;;19.02;60.06;98992.09;6198687;22;19995;-93
2022/08/13 05:19:19;;;;;;;9.77;5.65;;;;;;;19.14;60.58;98998.41;6224102;22;20034;-93
2022/08/13 05:21:44;;;;;;;6.45;4.45;;;;;;;19.24;60.31;99004.59;6199303;22;20004;-91
2022/08/13 05:24:10;;;;;;;7.20;4.78;;;;;;;19.26;60.10;98989.50;6199299;22;20003;-92
2022/08/13 05:26:35;;;;;;;7.78;5.05;;;;;;;19.38;59.88;98991.44;6200131;22;19996;-93
2022/08/13 05:29:05;;;;;;;8.57;5.30;;;;;;;19.56;60.35;99006.50;6224713;22;20000;-91
2022/08/13 05:31:32;;;;;;;7.70;5.18;;;;;;;19.57;59.57;98990.94;6200353;22;20408;-93
2022/08/13 05:33:57;;;;;;;8.25;5.55;;;;;;;19.71;59.59;99001.56;6199246;22;20007;-91
2022/08/13 05:36:28;;;;;;;9.60;5.60;;;;;;;19.56;59.34;98992.84;6199220;22;20003;-91
2022/08/13 05:38:55;;;;;;;6.63;5.03;;;;;;;19.72;59.65;98997.72;6201623;22;19999;-91
2022/08/13 05:41:21;;;;;;;7.28;5.10;;;;;;;19.86;59.44;99000.94;6224687;22;19999;-91
2022/08/13 05:43:50;;;;;;;6.90;4.97;;;;;;;20.01;58.89;98987.75;6187001;22;20000;-92
2022/08/13 05:46:16;;;;;;;7.15;5.22;;;;;;;20.02;58.11;98973.72;6200472;22;20010;-92
2022/08/13 05:48:42;;;;;;;11.10;5.60;;;;;;;20.17;57.95;98988.63;6186851;22;20028;-91
2022/08/13 05:51:12;;;;;;;8.07;5.28;;;;;;;20.25;57.57;98982.25;6224955;22;19996;-91
2022/08/13 05:53:37;;;;;;;6.35;4.78;;;;;;;20.44;57.11;98989.91;6225768;22;20061;-92
2022/08/13 05:56:04;;;;;;;7.70;5.22;;;;;;;20.58;56.99;98990.34;6226226;22;20442;-93
2022/08/13 05:58:30;;;;;;;6.20;5.05;;;;;;;20.77;57.02;98980.72;6199682;22;20358;-94
2022/08/13 06:03:40;;;;;;;7.00;5.30;;;;;;;21.11;55.84;98989.53;6235610;22;20518;-93
2022/08/13 06:06:08;;;;;;;6.75;5.05;;;;;;;21.23;55.35;98977.72;6200276;22;20003;-94
2022/08/13 06:08:36;;;;;;;8.27;5.15;;;;;;;21.35;55.01;98980.41;6199737;22;20029;-92
2022/08/13 06:11:13;;;;;;;11.10;7.53;;;;;;;21.46;55.23;98986.19;6226623;22;19999;-92
2022/08/13 06:13:39;;;;;;;9.18;5.28;;;;;;;21.58;54.81;98970.50;6201034;22;20086;-92
2022/08/13 06:16:09;;;;;;;8.82;5.60;;;;;;;21.84;53.75;98982.88;6200007;22;19999;-92
2022/08/13 06:18:36;;;;;;;10.07;5.60;;;;;;;21.97;53.63;98975.34;6199772;22;20000;-92
2022/08/13 06:21:06;;;;;;;7.13;5.30;;;;;;;22.25;52.78;98967.06;6200921;22;20008;-91
2022/08/13 06:23:32;;;;;;;6.75;4.97;;;;;;;22.34;52.39;98955.88;6199740;22;20363;-93
2022/08/13 06:25:58;;;;;;;10.93;5.63;;;;;;;22.54;52.54;98957.50;6200558;22;20000;-92
2022/08/13 06:28:30;;;;;;;7.15;5.50;;;;;;;22.78;51.35;98964.69;6201107;22;20000;-93
2022/08/13 06:31:00;;;;;;;7.30;5.10;;;;;;;22.91;51.02;98953.56;6203096;22;20346;-93
2022/08/13 06:33:26;;;;;;;7.60;5.53;;;;;;;22.97;50.41;98946.63;6227271;22;20001;-92
2022/08/13 06:35:52;;;;;;;8.32;5.38;;;;;;;22.95;51.10;98944.25;6201205;22;19987;-92
2022/08/13 06:38:18;;;;;;;8.65;5.75;;;;;;;23.33;51.31;98963.84;6250881;22;20000;-93
2022/08/13 06:40:44;;;;;;;8.98;5.22;;;;;;;23.36;51.08;98947.41;6200949;22;20500;-91
2022/08/13 06:43:10;;;;;;;8.40;6.00;;;;;;;23.41;50.75;98957.31;6200168;22;20449;-92
2022/08/13 06:45:36;;;;;;;7.55;5.80;;;;;;;23.40;50.64;98951.00;6200237;22;20003;-92
2022/08/13 06:48:02;;;;;;;7.28;5.65;;;;;;;23.39;50.51;98949.44;6226190;22;20335;-92
2022/08/13 06:50:27;;;;;;;11.93;6.13;;;;;;;23.55;50.80;98952.09;6199572;22;20012;-92
2022/08/13 06:52:54;;;;;;;8.00;5.00;;;;;;;23.67;50.33;98950.31;6200056;22;20018;-93
2022/08/13 06:55:20;;;;;;;9.95;5.72;;;;;;;23.75;50.50;98949.25;6200293;22;20000;-93
2022/08/13 06:57:46;;;;;;;8.02;5.57;;;;;;;23.84;50.43;98958.06;6224537;22;20449;-92
2022/08/13 07:00:11;;;;;;;8.68;6.00;;;;;;;24.03;49.74;98964.66;6250184;22;20381;-93
2022/08/13 07:02:38;;;;;;;7.10;5.30;;;;;;;24.05;49.36;98951.31;6224724;22;19996;-92
2022/08/13 07:05:04;;;;;;;10.75;6.13;;;;;;;24.13;49.51;98953.81;6199894;22;20053;-92
2022/08/13 07:07:31;;;;;;;11.68;6.32;;;;;;;24.32;49.04;98949.38;6199115;22;20011;-91
2022/08/13 07:09:57;;;;;;;14.05;6.35;;;;;;;24.38;48.90;98945.13;6224836;22;20487;-92
2022/08/13 07:12:22;;;;;;;10.00;5.65;;;;;;;24.66;48.47;98946.75;6224720;22;20023;-92
2022/08/13 07:14:47;;;;;;;10.05;6.25;;;;;;;24.60;48.77;98940.75;6199500;22;20057;-94
2022/08/13 07:17:15;;;;;;;7.95;5.88;;;;;;;24.69;48.55;98951.47;6200550;22;20339;-92
2022/08/13 07:19:40;;;;;;;8.95;5.75;;;;;;;24.90;48.26;98937.19;6200198;22;20157;-92
2022/08/13 07:22:06;;;;;;;7.30;5.43;;;;;;;25.03;48.16;98957.81;6224519;22;20000;-94
2022/08/13 07:24:32;;;;;;;8.75;6.00;;;;;;;25.22;47.51;98951.38;6200665;22;19996;-92
2022/08/13 07:27:07;;;;;;;13.18;6.60;;;;;;;25.36;47.53;98943.25;6201206;22;20014;-92
2022/08/13 07:29:35;;;;;;;10.93;6.30;;;;;;;25.48;46.49;98957.91;6202514;22;20018;-94
2022/08/13 07:32:02;;;;;;;8.52;6.18;;;;;;;25.42;47.00;98940.91;6202170;22;20003;-93
2022/08/13 07:34:31;;;;;;;8.63;5.85;;;;;;;25.39;46.89;98950.75;6200128;22;19996;-91
2022/08/13 07:36:56;;;;;;;10.60;6.60;;;;;;;25.40;47.13;98933.06;6229395;22;19996;-94
2022/08/13 07:39:22;;;;;;;8.23;5.93;;;;;;;25.65;47.80;98934.44;6227184;22;20073;-93
2022/08/13 07:41:48;;;;;;;10.23;6.10;;;;;;;25.78;46.23;98930.22;6203943;22;20023;-93
2022/08/13 07:44:21;;;;;;;14.40;6.45;;;;;;;25.94;45.70;98925.28;6203414;22;20004;-92
2022/08/13 07:46:50;;;;;;;7.85;6.00;;;;;;;26.23;45.41;98936.50;6204624;22;20006;-95
2022/08/13 07:49:16;;;;;;;8.07;5.97;;;;;;;26.31;44.30;98932.59;6201536;22;20016;-93
2022/08/13 07:51:42;;;;;;;8.48;5.80;;;;;;;26.30;44.95;98930.22;6227129;22;20027;-91
2022/08/13 07:54:11;;;;;;;9.50;6.30;;;;;;;26.49;44.48;98932.69;6227629;22;20079;-92
2022/08/13 07:56:37;;;;;;;9.40;6.35;;;;;;;26.59;43.53;98922.94;6202146;22;20342;-90
2022/08/13 07:59:11;;;;;;;8.00;5.25;;;;;;;26.39;42.98;98917.66;6252316;22;20007;-92
2022/08/13 08:01:45;;;;;;;7.65;5.55;;;;;;;26.56;42.69;98916.19;6203014;22;20004;-93
2022/08/13 08:04:13;;;;;;;7.88;6.10;;;;;;;26.69;43.42;98907.59;6225905;22;19995;-92
2022/08/13 08:06:39;;;;;;;7.80;5.68;;;;;;;26.70;42.53;98904.41;6229258;22;20402;-93
2022/08/13 08:09:07;;;;;;;8.45;5.75;;;;;;;26.84;42.51;98900.16;6201414;22;20095;-92
2022/08/13 08:14:18;;;;;;;6.80;5.38;;;;;;;27.00;42.03;98911.63;6234669;22;20081;-91
2022/08/13 08:16:44;;;;;;;9.10;5.10;;;;;;;27.15;42.04;98918.00;6227084;22;20010;-91
2022/08/13 08:19:14;;;;;;;7.78;4.95;;;;;;;27.30;40.51;98916.84;6227011;22;20052;-92
2022/08/13 08:21:40;;;;;;;6.55;5.18;;;;;;;27.31;39.85;98904.63;6250925;22;20003;-91
2022/08/13 08:24:06;;;;;;;7.25;5.63;;;;;;;27.41;39.48;98903.03;6201748;22;20003;-92
2022/08/13 08:26:32;;;;;;;7.88;5.65;;;;;;;27.56;39.78;98904.66;6201651;22;20074;-92
2022/08/13 08:28:59;;;;;;;8.70;5.90;;;;;;;27.73;39.42;98910.59;6225407;22;20034;-92
2022/08/13 08:31:26;;;;;;;8.82;5.63;;;;;;;27.86;38.73;98914.53;6201019;22;20019;-92
2022/08/13 08:33:54;;;;;;;7.32;5.18;;;;;;;27.82;38.26;98908.19;6226526;22;20085;-91
2022/08/13 08:36:19;;;;;;;9.55;5.80;;;;;;;27.94;38.63;98904.25;6202854;22;20006;-95
2022/08/13 08:44:23;;;;;;;8.88;5.28;;;;;;;28.17;37.23;98893.53;6234313;22;20068;-92
2022/08/13 08:46:53;;;;;;;7.25;5.13;;;;;;;28.25;37.23;98891.56;6226919;22;20422;-92
2022/08/13 08:49:21;;;;;;;8.38;4.70;;;;;;;28.26;36.69;98878.50;6226843;22;20500;-93
2022/08/13 08:51:48;;;;;;;9.75;5.63;;;;;;;28.33;36.78;98875.72;6202083;22;20007;-92
2022/08/13 08:54:13;;;;;;;6.88;5.38;;;;;;;28.35;35.92;98878.88;6250652;22;20000;-92
2022/08/13 08:56:41;;;;;;;9.05;5.68;;;;;;;28.51;35.50;98872.91;6226698;22;20027;-93
2022/08/13 08:59:07;;;;;;;10.95;5.50;;;;;;;28.54;36.18;98861.81;6202518;22;20056;-93
2022/08/13 09:01:34;;;;;;;9.63;5.75;;;;;;;28.59;35.86;98868.91;6200909;22;20082;-93
2022/08/13 09:03:59;;;;;;;8.02;5.55;;;;;;;28.65;34.91;98858.19;6225902;22;20000;-93
2022/08/13 09:06:26;;;;;;;6.05;5.18;;;;;;;28.83;36.38;98869.19;6199860;22;20000;-92
2022/08/13 09:08:52;;;;;;;7.78;5.60;;;;;;;28.76;36.54;98856.97;6200631;22;20008;-94
2022/08/13 09:11:19;;;;;;;7.03;4.95;;;;;;;28.83;35.09;98855.34;6225000;22;20342;-94
2022/08/13 09:13:47;;;;;;;6.93;5.10;;;;;;;28.81;34.90;98850.97;6226266;22;19996;-92
2022/08/13 09:16:13;;;;;;;8.48;5.38;;;;;;;29.12;35.11;98861.53;6227100;22;20002;-95
2022/08/13 09:18:39;;;;;;;8.75;6.15;;;;;;;29.14;35.38;98842.50;6203132;22;20006;-95
2022/08/13 09:21:06;;;;;;;7.50;5.65;;;;;;;29.07;35.10;98848.06;6202831;22;20004;-94
2022/08/13 09:23:33;;;;;;;8.65;5.32;;;;;;;29.06;33.68;98858.38;6201461;22;20083;-90
2022/08/13 09:25:58;;;;;;;8.82;5.78;;;;;;;29.02;34.27;98855.59;6250743;22;20031;-91
2022/08/13 09:28:24;;;;;;;8.80;5.05;;;;;;;28.97;34.73;98827.53;6200193;22;20346;-92
2022/08/13 09:30:54;;;;;;;10.85;5.57;;;;;;;29.14;34.85;98837.75;6201273;22;19992;-90
2022/08/13 09:33:20;;;;;;;9.65;5.32;;;;;;;29.15;34.92;98853.16;6199665;22;20004;-91
2022/08/13 09:35:50;;;;;;;6.50;5.10;;;;;;;29.23;34.69;98837.28;6199603;22;20000;-90
2022/08/13 09:38:15;;;;;;;7.88;5.05;;;;;;;29.24;34.96;98832.50;6226775;22;20479;-92
2022/08/13 09:41:21;;;;;;;8.65;5.10;;;;;;;29.46;34.23;98841.47;6200543;22;20011;-91
2022/08/13 09:43:49;;;;;;;8.45;5.50;;;;;;;29.39;33.81;98840.31;6208680;22;20386;-93
2022/08/13 09:46:16;;;;;;;9.65;5.80;;;;;;;29.41;34.43;98831.59;6251050;22;20034;-94
2022/08/13 09:48:42;;;;;;;9.95;5.30;;;;;;;29.56;34.68;98840.56;6225461;22;20042;-95
2022/08/13 09:51:13;;;;;;;6.78;5.20;;;;;;;29.56;33.93;98823.94;6225239;22;19995;-93
2022/08/13 09:53:40;;;;;;;8.77;4.90;;;;;;;29.70;34.08;98823.84;6201521;22;19999;-91
2022/08/13 09:56:05;;;;;;;8.25;6.45;;;;;;;29.85;34.24;98826.47;6223660;22;20030;-91
2022/08/13 09:58:32;;;;;;;7.25;5.60;;;;;;;29.67;34.31;98821.84;6198130;22;19999;-89
2022/08/13 10:00:58;;;;;;;7.57;5.60;;;;;;;29.81;34.38;98812.63;6224499;22;20358;-92
2022/08/13 10:03:23;;;;;;;8.55;5.70;;;;;;;29.85;34.27;98813.38;6224291;22;19995;-89
2022/08/13 10:05:52;;;;;;;7.35;5.38;;;;;;;30.01;34.48;98818.38;6224540;22;20067;-92
2022/08/13 10:08:18;;;;;;;6.30;4.47;;;;;;;29.95;33.18;98809.69;6224620;22;20003;-95
2022/08/13 10:10:49;;;;;;;6.07;4.57;;;;;;;30.07;33.57;98819.50;6226237;22;19995;-93
2022/08/13 10:13:15;;;;;;;7.45;4.78;;;;;;;29.84;32.88;98797.91;6226382;22;20387;-92
2022/08/13 10:15:42;;;;;;;5.90;4.07;;;;;;;30.00;32.32;98808.44;6224542;22;20065;-93
2022/08/13 10:18:08;;;;;;;5.03;3.63;;;;;;;30.02;31.10;98806.81;6199855;22;19999;-93
2022/08/13 10:20:36;;;;;;;8.25;4.07;;;;;;;30.22;30.89;98809.00;6226253;22;20000;-92
2022/08/13 10:23:09;;;;;;;5.80;3.90;;;;;;;30.16;31.77;98807.88;6249989;22;20000;-93
2022/08/13 10:25:37;;;;;;;6.22;4.55;;;;;;;30.18;33.17;98778.47;6200663;22;20000;-92
2022/08/13 10:28:14;;;;;;;6.97;4.70;;;;;;;30.40;32.87;98792.91;6226116;22;20003;-92
2022/08/13 10:30:42;;;;;;;5.55;4.30;;;;;;;30.45;32.84;98779.78;6225374;22;20030;-91
2022/08/13 10:33:08;;;;;;;8.55;4.90;;;;;;;30.73;31.77;98789.69;6224344;22;20015;-91
2022/08/13 10:35:33;;;;;;;4.85;3.78;;;;;;;30.74;31.59;98777.38;6249017;22;20066;-92
2022/08/13 10:37:59;;;;;;;7.00;4.82;;;;;;;30.72;31.05;98780.56;6223263;22;19996;-91
2022/08/13 10:40:25;;;;;;;7.25;4.90;;;;;;;30.80;30.91;98767.34;6223819;22;20003;-92
2022/08/13 10:42:52;;;;;;;5.97;3.92;;;;;;;30.86;30.67;98781.53;6198989;22;20333;-94
2022/08/13 10:45:20;;;;;;;8.25;5.00;;;;;;;30.86;30.91;98771.25;6198665;22;20000;-92
2022/08/13 10:47:51;;;;;;;5.97;4.03;;;;;;;30.92;30.74;98769.59;6199101;22;20061;-93
2022/08/13 10:50:20;;;;;;;5.77;3.90;;;;;;;30.68;30.57;98767.94;6223591;22;20078;-91
2022/08/13 10:52:46;;;;;;;6.03;4.05;;;;;;;30.63;30.70;98766.38;6224766;22;20061;-91
2022/08/13 10:55:12;;;;;;;5.40;4.00;;;;;;;30.74;30.74;98771.81;6223391;22;20041;-91
2022/08/13 10:57:43;;;;;;;6.75;4.28;;;;;;;30.65;31.72;98758.41;6198702;22;20061;-91
2022/08/13 11:00:10;;;;;;;5.90;4.35;;;;;;;30.53;31.85;98751.47;6224196;22;20015;-92
2022/08/13 11:02:37;;;;;;;6.40;4.32;;;;;;;30.58;31.29;98756.53;6223772;22;20003;-92
2022/08/13 11:05:05;;;;;;;5.50;4.22;;;;;;;30.49;31.14;98750.72;6200621;22;20003;-91
2022/08/13 11:07:32;;;;;;;6.43;4.50;;;;;;;30.69;30.76;98750.03;6198540;22;20002;-91
2022/08/13 11:09:59;;;;;;;5.50;4.32;;;;;;;30.67;30.30;98749.66;6224737;22;19991;-92
2022/08/13 11:12:24;;;;;;;9.75;4.75;;;;;;;30.76;31.71;98752.72;6201927;22;20003;-91
2022/08/13 11:14:50;;;;;;;10.00;4.68;;;;;;;30.81;31.12;98749.47;6226201;22;20069;-91
2022/08/13 11:17:18;;;;;;;5.40;4.28;;;;;;;30.96;31.25;98744.47;6201049;22;20003;-92
2022/08/13 11:19:48;;;;;;;8.25;4.57;;;;;;;31.05;31.57;98746.75;6225870;22;20067;-91
2022/08/13 11:22:17;;;;;;;5.05;4.32;;;;;;;30.71;31.23;98740.06;6226616;22;20008;-92
2022/08/13 11:24:42;;;;;;;6.75;4.32;;;;;;;30.84;31.19;98734.72;6201678;22;19999;-90
2022/08/13 11:27:08;;;;;;;5.70;4.53;;;;;;;30.45;31.34;98735.31;6226767;22;19996;-92
2022/08/13 11:29:33;;;;;;;6.25;5.00;;;;;;;30.64;31.16;98734.63;6226603;22;19996;-92
2022/08/13 11:31:59;;;;;;;7.22;4.22;;;;;;;30.78;29.88;98731.63;6201733;22;20002;-93
2022/08/13 11:34:25;;;;;;;5.72;3.60;;;;;;;30.92;29.19;98727.06;6200733;22;20042;-92
2022/08/13 11:36:51;;;;;;;6.90;3.90;;;;;;;31.07;28.88;98735.97;6201216;22;19999;-91
2022/08/13 11:39:17;;;;;;;4.93;3.85;;;;;;;30.86;29.06;98718.41;6226094;22;20079;-92
2022/08/13 11:41:42;;;;;;;5.47;3.90;;;;;;;30.81;29.63;98728.00;6251775;22;20461;-91
2022/08/13 11:44:08;;;;;;;5.88;4.03;;;;;;;30.69;30.38;98723.03;6227070;22;20003;-93
2022/08/13 11:46:33;;;;;;;7.85;4.45;;;;;;;30.72;30.09;98719.41;6199613;22;19995;-92
2022/08/13 11:48:59;;;;;;;7.18;4.65;;;;;;;30.93;30.02;98735.00;6201116;22;20017;-96
2022/08/13 11:51:24;;;;;;;4.93;4.13;;;;;;;30.49;30.80;98714.59;6213369;22;20000;-95
2022/08/13 11:53:50;;;;;;;5.30;4.25;;;;;;;30.46;30.90;98704.31;6231162;22;20003;-95